Terminal Aerodrome Forecast
Issued by NWS

Home | Current Version | Previous Version | Text Only | Print | Product List | Glossary On
Versions: 1 2 3 4 5 6 7 8 9 10 11 12 13 14 15 16 17 18 19 20 21 22 23 24 25 26 27 28
000
FTUS41 KBUF 230836 AAB
TAFJHW
TAF AMD
KJHW 230836Z 2309/2406 28006KT P6SM FEW070
      TEMPO 2309/2312 1SM BR BKN003
     FM231400 27008KT P6SM SCT040
     FM231800 27012KT P6SM SCT045
     FM232200 28009KT P6SM BKN035
     FM240300 VRB03KT P6SM BKN035
      AMD LTD TO CLD VIS AND WIND=

USA.gov is the U.S. government's official web portal to all federal, state and local government web resources and services.